Wednesday, June 20, 2018, 6:28 PM EDT
Back to Local

KBUF, Greater Buffalo International Airport

Location: Buffalo, NY, United States Lat: 42.933
Local Time: 6:28 PM EDT (22:28 GMT) Lon: -78.733
Time Zone: US/Eastern Elev: 725 ft

Show me the last for .
Show Decoded

2018-06-20 17:54 METAR KBUF 202154Z VRB04KT 10SM FEW060 FEW140 BKN280 23/12 A2982 RMK AO2 SLP095
                 T02330117 =
2018-06-20 16:54 METAR KBUF 202054Z 24006KT 10SM FEW060 FEW140 BKN270 23/14 A2984 RMK AO2 SLP101
                 60000 T02280139 58012 =
2018-06-20 15:54 METAR KBUF 201954Z 29004KT 10SM FEW037 FEW070 FEW100 BKN140 BKN270 23/14 A2985
                 RMK AO2 RAE29 SLP106 SHRA DSNT S-W P0000 T02280139 =
2018-06-20 14:54 METAR KBUF 201854Z 27003KT 10SM -RA FEW037 FEW070 FEW100 BKN140 BKN270 23/12
                 A2986 RMK AO2 RAB52 SLP110 PCPN VRY LGT P0000 T02280122 =
2018-06-20 13:54 METAR KBUF 201754Z COR 09003KT 10SM FEW090 BKN140 BKN250 22/13 A2987 RMK AO2
                 RAE09 SLP113 SHRA VC SW-W AND DSNT ALQDS P0000 60000 T02170128 10222 20172 58006
                 =
2018-06-20 12:54 METAR KBUF 201654Z VRB04KT 10SM -RA FEW080 BKN100 BKN120 OVC160 22/13 A2989 RMK
                 AO2 RAB32 SLP119 PCPN VRY LGT P0000 T02170128 =
2018-06-20 11:54 METAR KBUF 201554Z 35003KT 10SM FEW080 BKN120 OVC180 21/12 A2988 RMK AO2 SLP116
                 SHRA DSNT ALQDS T02110122 =
2018-06-20 10:54 METAR KBUF 201454Z 00000KT 10SM FEW080 BKN120 OVC180 21/12 A2989 RMK AO2
                 RAB11E20 SLP119 SHRA DSNT ALQDS P0000 60000 T02060117 58010 =
2018-06-20 09:54 METAR KBUF 201354Z 10003KT 10SM FEW090 BKN120 BKN180 BKN250 20/12 A2990 RMK AO2
                 SLP121 VIRGA VC SW-NW AND DSNT ALQDS T02000122 =
2018-06-20 08:54 METAR KBUF 201254Z 00000KT 10SM FEW100 BKN130 OVC180 18/12 A2991 RMK AO2 SLP127
                 VIRGA DSNT ALQDS T01830122 =
2018-06-20 07:54 METAR KBUF 201154Z 13004KT 10SM SCT100 BKN140 OVC180 17/12 A2992 RMK AO2
                 RAB1055E05 SLP129 SHRA DSNT NE-E P0000 60000 T01720117 10178 20161 50001 =
2018-06-20 06:54 METAR KBUF 201054Z 00000KT 10SM BKN120 BKN150 BKN190 17/12 A2993 RMK AO2 SLP131
                 T01670122 =
2018-06-20 05:54 METAR KBUF 200954Z 06003KT 10SM BKN140 BKN230 16/12 A2993 RMK AO2 SLP132
                 T01610122 =
2018-06-20 04:54 METAR KBUF 200854Z 04003KT 10SM BKN150 BKN240 16/12 A2992 RMK AO2 SLP128
                 T01610117 56003 =
2018-06-20 03:54 METAR KBUF 200754Z 00000KT 10SM SCT140 BKN180 17/12 A2992 RMK AO2 SLP130
                 T01670117 =
2018-06-20 02:54 METAR KBUF 200654Z 00000KT 10SM SCT140 BKN180 BKN240 17/12 A2992 RMK AO2 SLP130
                 T01670117 =
2018-06-20 01:54 METAR KBUF 200554Z 07004KT 10SM SCT160 BKN230 17/11 A2993 RMK AO2 SLP132
                 T01720111 10211 20172 58011 =
2018-06-20 00:54 METAR KBUF 200454Z 11003KT 10SM SCT130 SCT170 BKN210 18/11 A2995 RMK AO2 SLP139
                 T01830106 402390167 =
2018-06-19 23:54 METAR KBUF 200354Z 10003KT 10SM FEW140 BKN180 19/10 A2996 RMK AO2 SLP142
                 T01890100 =
2018-06-19 22:54 METAR KBUF 200254Z 00000KT 10SM BKN170 19/09 A2996 RMK AO2 SLP143 T01890094
                 53001 =
2018-06-19 21:54 METAR KBUF 200154Z 05004KT 10SM BKN160 19/09 A2997 RMK AO2 SLP146 T01940089 =
2018-06-19 20:54 METAR KBUF 200054Z 04007KT 10SM FEW120 BKN160 BKN260 20/08 A2995 RMK AO2 SLP138
                 T02000083 =
2018-06-19 19:54 METAR KBUF 192354Z 05007KT 10SM BKN200 BKN270 21/09 A2996 RMK AO2 SLP142
                 T02110089 10239 20211 58003 =
2018-06-19 18:54 METAR KBUF 192254Z 01005KT 10SM BKN190 BKN250 22/08 A2996 RMK AO2 SLP144
                 T02220083 =

Support USWX by starting your Amazon purchase here.